Time;durP1;ratioP1;P1;durP2;ratioP2;P2;SDS_P1;SDS_P2;PMS_P1;PMS_P2;Temp;Humidity;BMP_temperature;BMP_pressure;BME280_temperature;BME280_humidity;BME280_pressure;Samples;Min_cycle;Max_cycle;Signal;HPM_P1;HPM_P2
2020/12/22 00:01:25;;;;;;;23.60;13.00;;;;;;;2.12;66.40;98182.81;1756396;81;21263;-80
2020/12/22 00:03:52;;;;;;;22.77;13.13;;;;;;;2.06;66.56;98185.59;1756026;81;21151;-81
2020/12/22 00:06:23;;;;;;;16.10;8.03;;;;;;;1.97;66.66;98185.86;1729150;82;21313;-81
2020/12/22 00:08:51;;;;;;;24.18;15.20;;;;;;;1.96;67.21;98190.19;1730993;82;21297;-79
2020/12/22 00:11:21;;;;;;;26.85;15.55;;;;;;;1.96;66.70;98182.84;1727717;82;21659;-82
2020/12/22 00:13:48;;;;;;;28.73;14.53;;;;;;;2.00;67.14;98187.05;1727476;82;21097;-81
2020/12/22 00:16:16;;;;;;;22.95;13.40;;;;;;;2.05;66.80;98186.49;1751122;82;21143;-82
2020/12/22 00:18:43;;;;;;;22.32;13.88;;;;;;;2.05;66.99;98172.62;1732046;81;21143;-81
2020/12/22 00:21:11;;;;;;;22.65;14.18;;;;;;;2.06;66.96;98162.19;1727293;82;21262;-80
2020/12/22 00:23:38;;;;;;;17.25;9.50;;;;;;;2.05;66.88;98169.59;1731732;82;21092;-83
2020/12/22 00:26:06;;;;;;;22.35;13.05;;;;;;;2.07;66.81;98170.40;1725307;82;21558;-82
2020/12/22 00:28:33;;;;;;;20.12;11.85;;;;;;;2.04;67.01;98171.78;1746738;82;21128;-79
2020/12/22 00:31:00;;;;;;;23.38;13.00;;;;;;;2.10;66.93;98170.29;1733153;81;21341;-81
2020/12/22 00:33:28;;;;;;;19.42;11.65;;;;;;;2.16;67.04;98170.56;1727012;82;21109;-81
2020/12/22 00:35:55;;;;;;;22.67;13.50;;;;;;;2.14;66.95;98171.92;1730726;82;21119;-80
2020/12/22 00:38:22;;;;;;;23.60;13.72;;;;;;;2.06;67.08;98173.89;1726048;82;21132;-81
2020/12/22 00:40:49;;;;;;;26.60;14.70;;;;;;;2.00;67.29;98171.45;1725847;82;21636;-81
2020/12/22 00:43:16;;;;;;;21.62;12.18;;;;;;;1.99;67.50;98164.57;1738828;82;21132;-82
2020/12/22 00:45:44;;;;;;;21.00;13.65;;;;;;;2.02;67.57;98160.12;1744290;82;21234;-82
2020/12/22 00:48:13;;;;;;;19.20;12.03;;;;;;;2.09;67.57;98163.38;1746497;82;21573;-81
2020/12/22 00:50:40;;;;;;;20.35;12.58;;;;;;;2.11;67.36;98161.59;1752047;82;21115;-82
2020/12/22 00:53:08;;;;;;;21.30;11.22;;;;;;;2.11;67.34;98166.80;1726190;83;21163;-81
2020/12/22 00:55:36;;;;;;;22.15;13.30;;;;;;;2.15;67.35;98167.55;1726570;83;21294;-82
2020/12/22 00:58:04;;;;;;;20.72;11.88;;;;;;;2.11;67.38;98161.59;1739386;82;21116;-82
2020/12/22 01:00:33;;;;;;;23.25;13.53;;;;;;;2.15;67.37;98159.32;1751121;82;21156;-80
2020/12/22 01:03:00;;;;;;;22.58;12.55;;;;;;;2.12;67.89;98155.96;1742779;82;21148;-83
2020/12/22 01:05:27;;;;;;;20.45;11.57;;;;;;;2.12;67.80;98151.59;1741844;82;21152;-83
2020/12/22 01:07:54;;;;;;;19.10;11.45;;;;;;;2.10;67.44;98153.38;1747864;82;21085;-83
2020/12/22 01:10:22;;;;;;;19.60;12.03;;;;;;;2.08;67.34;98146.53;1756052;82;21156;-82
2020/12/22 01:12:49;;;;;;;22.73;11.28;;;;;;;2.08;67.45;98153.03;1746402;82;21128;-83
2020/12/22 01:15:17;;;;;;;19.48;11.70;;;;;;;2.09;67.52;98162.08;1732605;82;21272;-82
2020/12/22 01:17:44;;;;;;;19.32;10.98;;;;;;;2.11;67.47;98149.05;1733085;82;21286;-82
2020/12/22 01:20:11;;;;;;;17.77;10.78;;;;;;;2.13;67.72;98146.80;1726660;82;21163;-81
2020/12/22 01:22:38;;;;;;;18.42;11.75;;;;;;;2.17;67.64;98145.83;1726708;82;21294;-83
2020/12/22 01:25:06;;;;;;;21.23;13.15;;;;;;;2.21;67.60;98150.48;1727934;82;21190;-82
2020/12/22 01:27:33;;;;;;;20.17;12.25;;;;;;;2.25;67.38;98148.64;1749173;82;21258;-81
2020/12/22 01:30:01;;;;;;;22.42;13.50;;;;;;;2.30;67.22;98145.44;1727234;82;21172;-81
2020/12/22 01:32:28;;;;;;;22.50;13.00;;;;;;;2.28;67.15;98145.50;1727411;82;21167;-83
2020/12/22 01:34:55;;;;;;;18.20;10.23;;;;;;;2.27;67.32;98148.16;1732006;82;21132;-83
2020/12/22 01:37:22;;;;;;;19.20;12.33;;;;;;;2.23;67.59;98149.13;1726934;82;21274;-82
2020/12/22 01:39:50;;;;;;;16.97;9.98;;;;;;;2.17;67.47;98148.86;1726492;83;21176;-82
2020/12/22 01:42:17;;;;;;;20.23;11.20;;;;;;;2.15;67.57;98145.02;1686513;85;21120;-82
2020/12/22 01:44:44;;;;;;;13.28;7.40;;;;;;;2.10;67.82;98136.94;1728456;82;21144;-82
2020/12/22 01:47:12;;;;;;;20.90;10.23;;;;;;;2.12;67.98;98139.89;1756198;82;21146;-81
2020/12/22 01:49:40;;;;;;;23.10;11.00;;;;;;;2.07;67.98;98136.59;1748092;82;21215;-81
2020/12/22 01:52:08;;;;;;;21.87;12.40;;;;;;;1.99;68.24;98131.59;1747734;82;21151;-80
2020/12/22 01:54:35;;;;;;;24.20;13.22;;;;;;;1.90;68.41;98126.66;1728817;82;21129;-83
2020/12/22 01:57:11;;;;;;;23.55;13.90;;;;;;;1.86;68.80;98127.20;1734527;82;21294;-81
2020/12/22 01:59:38;;;;;;;22.52;12.18;;;;;;;1.91;69.12;98123.17;1712787;84;21160;-80
2020/12/22 02:02:07;;;;;;;21.57;10.53;;;;;;;2.01;68.91;98127.64;1712702;83;21144;-82
2020/12/22 02:04:36;;;;;;;21.52;12.93;;;;;;;2.01;68.82;98123.74;1713808;82;21109;-82
2020/12/22 02:07:05;;;;;;;22.17;14.87;;;;;;;2.00;68.89;98112.94;1728488;82;21259;-82
2020/12/22 02:09:32;;;;;;;24.27;13.48;;;;;;;2.05;68.85;98118.87;1731362;82;21141;-82
2020/12/22 02:11:59;;;;;;;23.10;13.28;;;;;;;2.10;68.61;98110.93;1693248;84;21299;-82
2020/12/22 02:14:26;;;;;;;25.43;11.83;;;;;;;2.09;68.58;98104.86;1713184;83;21113;-83
2020/12/22 02:16:54;;;;;;;19.73;11.03;;;;;;;2.08;68.41;98103.61;1717852;82;21144;-81
2020/12/22 02:19:23;;;;;;;27.13;12.55;;;;;;;2.09;68.44;98106.16;1730732;82;21291;-83
2020/12/22 02:21:51;;;;;;;25.17;12.58;;;;;;;2.07;68.81;98112.31;1740840;82;21244;-80
2020/12/22 02:24:20;;;;;;;25.48;13.53;;;;;;;2.05;68.46;98113.66;1713100;82;21163;-79
2020/12/22 02:26:48;;;;;;;22.98;11.20;;;;;;;2.00;68.73;98109.03;1713642;82;21144;-81
2020/12/22 02:29:15;;;;;;;25.97;14.93;;;;;;;1.97;69.04;98115.18;1739805;82;21121;-80
2020/12/22 02:31:43;;;;;;;20.90;12.07;;;;;;;1.91;69.05;98107.57;1738898;82;21145;-83
2020/12/22 02:34:10;;;;;;;17.80;9.35;;;;;;;1.91;68.96;98106.70;1742350;82;21311;-81
2020/12/22 02:36:39;;;;;;;26.80;14.05;;;;;;;1.55;69.10;98053.15;1742483;82;21157;-82
2020/12/22 02:39:07;;;;;;;24.87;13.90;;;;;;;1.85;69.75;98106.45;1741347;82;21143;-82
2020/12/22 02:41:35;;;;;;;22.70;13.85;;;;;;;1.92;69.21;98112.31;1741686;82;21113;-82
2020/12/22 02:44:03;;;;;;;22.87;14.23;;;;;;;1.97;69.24;98111.28;1738682;82;21159;-82
2020/12/22 02:46:32;;;;;;;26.33;14.68;;;;;;;2.03;69.20;98112.85;1713057;84;21252;-81
2020/12/22 02:49:01;;;;;;;24.15;15.05;;;;;;;2.09;69.19;98111.82;1729561;82;21149;-83
2020/12/22 02:51:32;;;;;;;22.90;12.60;;;;;;;2.11;69.10;98106.97;1742109;82;21157;-80
2020/12/22 02:54:00;;;;;;;20.95;12.82;;;;;;;2.11;68.94;98104.83;1738869;82;21465;-82
2020/12/22 02:56:27;;;;;;;26.12;14.75;;;;;;;2.07;68.83;98105.80;1742067;82;21293;-81
2020/12/22 02:58:54;;;;;;;22.80;13.35;;;;;;;2.01;69.19;98105.11;1732732;82;22540;-83
2020/12/22 03:01:21;;;;;;;22.75;14.10;;;;;;;2.07;69.07;98105.38;1750102;82;21105;-81
2020/12/22 03:03:49;;;;;;;23.32;14.38;;;;;;;2.08;68.98;98104.91;1755920;82;21137;-82
2020/12/22 03:06:16;;;;;;;23.55;14.47;;;;;;;2.08;68.96;98101.02;1756601;82;21141;-83
2020/12/22 03:08:44;;;;;;;17.23;9.13;;;;;;;2.07;68.97;98102.77;1737830;82;21286;-82
2020/12/22 03:11:11;;;;;;;26.27;13.90;;;;;;;2.06;69.13;98098.47;1733859;82;21136;-79
2020/12/22 03:13:39;;;;;;;24.15;11.70;;;;;;;2.04;69.22;98105.45;1728338;82;21603;-82
2020/12/22 03:16:06;;;;;;;16.30;9.58;;;;;;;2.06;69.38;98102.37;1738148;82;21152;-82
2020/12/22 03:18:33;;;;;;;22.67;12.43;;;;;;;2.07;69.35;98100.17;1755099;82;21164;-82
2020/12/22 03:21:00;;;;;;;23.27;14.38;;;;;;;2.09;69.30;98097.52;1756045;82;21163;-80
2020/12/22 03:23:28;;;;;;;24.67;14.85;;;;;;;1.84;69.28;98050.98;1739099;82;21792;-82
2020/12/22 03:25:55;;;;;;;22.27;12.50;;;;;;;2.16;69.34;98088.63;1726107;82;21262;-81
2020/12/22 03:28:22;;;;;;;20.15;11.85;;;;;;;2.21;68.96;98098.89;1726578;82;21144;-79
2020/12/22 03:30:50;;;;;;;21.37;13.22;;;;;;;2.17;68.87;98096.83;1746865;82;21129;-83
2020/12/22 03:33:18;;;;;;;19.48;11.48;;;;;;;2.13;68.96;98096.08;1727651;82;21164;-82
2020/12/22 03:35:45;;;;;;;21.75;14.47;;;;;;;2.15;68.96;98098.62;1754964;82;21195;-80
2020/12/22 03:38:12;;;;;;;23.98;12.80;;;;;;;2.06;69.00;98089.36;1740654;82;21097;-81
2020/12/22 03:40:40;;;;;;;22.17;13.58;;;;;;;2.07;69.11;98093.67;1739566;82;21274;-82
2020/12/22 03:43:07;;;;;;;26.02;14.83;;;;;;;2.06;69.42;98091.09;1727123;83;21168;-81
2020/12/22 03:45:37;;;;;;;26.23;14.35;;;;;;;2.04;69.08;98093.75;1696303;84;21315;-83
2020/12/22 03:48:05;;;;;;;26.20;15.75;;;;;;;2.02;69.24;98085.14;1741580;81;21163;-82
2020/12/22 03:50:32;;;;;;;23.10;13.68;;;;;;;2.02;69.35;98084.70;1734777;82;21147;-81
2020/12/22 03:53:01;;;;;;;25.08;14.38;;;;;;;2.06;69.25;98082.86;1726455;83;21249;-82
2020/12/22 03:55:28;;;;;;;23.47;12.45;;;;;;;2.03;69.24;98078.61;1726373;83;21120;-83
2020/12/22 03:57:56;;;;;;;15.50;8.73;;;;;;;2.06;69.27;98075.06;1734401;82;21278;-81
2020/12/22 04:00:23;;;;;;;24.00;14.25;;;;;;;2.09;69.45;98078.84;1728726;82;21643;-81
2020/12/22 04:02:50;;;;;;;15.58;8.85;;;;;;;2.14;69.42;98088.68;1748785;82;21145;-82
2020/12/22 04:05:18;;;;;;;26.77;15.60;;;;;;;2.23;69.69;98073.69;1756010;82;21131;-81
2020/12/22 04:07:46;;;;;;;25.68;16.50;;;;;;;2.25;69.25;98076.63;1750976;82;21100;-82
2020/12/22 04:10:13;;;;;;;27.82;15.65;;;;;;;2.24;69.30;98072.79;1727216;82;21151;-81
2020/12/22 04:12:40;;;;;;;21.48;10.40;;;;;;;2.24;69.23;98064.52;1728209;82;21136;-81
2020/12/22 04:15:08;;;;;;;24.10;14.60;;;;;;;2.24;69.21;98077.53;1739424;82;21613;-80
2020/12/22 04:17:35;;;;;;;21.70;13.78;;;;;;;2.19;69.05;98075.53;1750967;82;21134;-81
2020/12/22 04:20:03;;;;;;;25.25;16.27;;;;;;;2.12;69.53;98068.36;1742077;82;21234;-83
2020/12/22 04:22:30;;;;;;;27.87;16.62;;;;;;;2.12;69.41;98074.02;1750077;82;21140;-83
2020/12/22 04:24:57;;;;;;;14.85;7.95;;;;;;;2.06;69.64;98067.69;1726825;82;21162;-82
2020/12/22 04:27:24;;;;;;;27.73;16.07;;;;;;;2.02;69.80;98070.41;1741655;82;21136;-82
2020/12/22 04:29:52;;;;;;;24.87;14.43;;;;;;;1.95;70.37;98067.55;1756309;82;21139;-81
2020/12/22 04:32:19;;;;;;;20.37;12.82;;;;;;;1.99;70.20;98060.08;1753995;82;21156;-82
2020/12/22 04:34:46;;;;;;;24.35;13.72;;;;;;;2.00;70.24;98067.42;1754834;82;21581;-82
2020/12/22 04:37:13;;;;;;;28.35;17.75;;;;;;;2.05;72.00;98069.88;1744181;82;21136;-83
2020/12/22 04:39:41;;;;;;;28.62;16.73;;;;;;;2.10;70.63;98071.91;1744416;82;21140;-80
2020/12/22 04:42:08;;;;;;;29.23;18.30;;;;;;;2.10;71.03;98064.95;1756822;82;21140;-80
2020/12/22 04:44:36;;;;;;;31.07;18.20;;;;;;;2.09;70.90;98066.30;1755925;82;21137;-82
2020/12/22 04:47:05;;;;;;;27.55;17.65;;;;;;;2.08;71.58;98064.16;1752132;82;21115;-83
2020/12/22 04:49:35;;;;;;;35.70;17.80;;;;;;;2.05;70.94;98058.18;1666700;86;21168;-81
2020/12/22 04:52:03;;;;;;;26.45;15.48;;;;;;;2.02;71.04;98056.53;1666174;86;21621;-81
2020/12/22 04:54:34;;;;;;;14.47;7.62;;;;;;;1.99;70.98;98050.98;1639632;86;21182;-80
2020/12/22 04:57:06;;;;;;;28.23;15.80;;;;;;;1.97;71.74;98046.73;1636019;88;21167;-81
2020/12/22 04:59:37;;;;;;;30.17;17.00;;;;;;;1.89;71.28;98039.15;1636275;88;21171;-82
2020/12/22 05:02:03;;;;;;;21.62;12.65;;;;;;;1.86;71.16;98035.33;1638417;86;22278;-82
2020/12/22 05:04:38;;;;;;;27.73;17.50;;;;;;;1.90;71.57;98030.92;1663414;85;21616;-81
2020/12/22 05:07:08;;;;;;;25.57;16.45;;;;;;;1.89;71.48;98033.11;1686955;82;21292;-81
2020/12/22 05:09:36;;;;;;;29.48;18.60;;;;;;;1.87;71.46;98031.84;1750973;82;21156;-79
2020/12/22 05:12:04;;;;;;;26.10;16.02;;;;;;;1.90;71.92;98025.72;1731603;81;21116;-81
2020/12/22 05:14:31;;;;;;;19.60;10.70;;;;;;;1.96;71.30;98027.66;1726576;82;21243;-81
2020/12/22 05:16:58;;;;;;;18.00;10.43;;;;;;;1.96;70.99;98028.12;1750752;82;21132;-82
2020/12/22 05:19:34;;;;;;;24.85;12.55;;;;;;;1.90;71.12;98029.16;1748054;81;21137;-83
2020/12/22 05:21:56;;;;;;;30.15;17.02;;;;;;;1.90;71.30;98029.62;1748022;82;21156;-82
2020/12/22 05:24:24;;;;;;;25.25;15.43;;;;;;;1.87;71.53;98031.41;1678918;85;21179;-81
2020/12/22 05:26:52;;;;;;;28.52;17.10;;;;;;;1.87;71.33;98036.61;1750669;82;21572;-79
2020/12/22 05:29:19;;;;;;;26.20;15.53;;;;;;;1.92;71.48;98031.70;1720113;82;21109;-80
2020/12/22 05:31:49;;;;;;;23.25;12.47;;;;;;;1.93;71.35;98038.60;1720946;82;21141;-82
2020/12/22 05:34:20;;;;;;;25.62;16.95;;;;;;;1.93;71.33;98040.77;1738476;82;21152;-81
2020/12/22 05:36:48;;;;;;;30.32;16.12;;;;;;;1.88;71.38;98038.74;1720541;83;21275;-82
2020/12/22 05:39:18;;;;;;;26.65;15.83;;;;;;;1.84;71.47;98039.28;1720582;83;21183;-81
2020/12/22 05:41:46;;;;;;;19.50;9.70;;;;;;;1.84;71.68;98039.28;1720574;83;21121;-81
2020/12/22 05:44:14;;;;;;;21.48;13.48;;;;;;;1.84;71.91;98041.05;1723984;82;21302;-82
2020/12/22 05:46:42;;;;;;;25.62;12.53;;;;;;;1.79;72.42;98048.12;1720396;83;21561;-79
2020/12/22 05:49:16;;;;;;;30.40;17.02;;;;;;;1.71;72.90;98047.91;1733003;82;21278;-82
2020/12/22 05:51:44;;;;;;;27.48;15.50;;;;;;;1.64;72.95;98037.28;1750834;81;21156;-81
2020/12/22 05:54:17;;;;;;;29.18;16.20;;;;;;;1.67;72.65;98032.44;1753347;81;21147;-81
2020/12/22 05:56:45;;;;;;;32.50;18.60;;;;;;;1.69;72.63;98024.99;1756541;82;21168;-81
2020/12/22 05:59:21;;;;;;;23.20;12.65;;;;;;;1.73;72.70;98027.05;1753986;82;21148;-80
2020/12/22 06:01:49;;;;;;;25.60;16.20;;;;;;;1.84;72.62;98024.98;1742935;82;21322;-79
2020/12/22 06:04:18;;;;;;;32.05;15.75;;;;;;;1.89;72.41;98027.91;1742732;82;21104;-81
2020/12/22 06:06:47;;;;;;;27.58;15.75;;;;;;;1.89;71.96;98037.02;1742467;82;21155;-80
2020/12/22 06:09:15;;;;;;;30.68;16.67;;;;;;;1.82;72.08;98034.58;1751224;82;21167;-82
2020/12/22 06:11:48;;;;;;;27.48;15.88;;;;;;;1.75;72.28;98038.26;1746992;82;21108;-82
2020/12/22 06:14:24;;;;;;;30.23;17.92;;;;;;;1.73;72.08;98028.81;1755567;82;21546;-80
2020/12/22 06:16:52;;;;;;;21.20;11.90;;;;;;;1.79;72.32;98031.22;1755792;82;21148;-81
2020/12/22 06:19:19;;;;;;;30.00;14.80;;;;;;;1.83;72.20;98034.14;1742669;82;21331;-80
2020/12/22 06:21:48;;;;;;;17.82;11.10;;;;;;;1.86;72.07;98035.33;1754147;82;21136;-81
2020/12/22 06:24:15;;;;;;;22.80;12.60;;;;;;;1.86;72.09;98034.90;1729180;82;21163;-81
2020/12/22 06:26:43;;;;;;;32.50;17.00;;;;;;;1.87;72.00;98034.44;1734843;82;21297;-80
2020/12/22 06:29:25;;;;;;;22.55;13.20;;;;;;;1.83;72.01;98034.98;1751612;82;21156;-82
2020/12/22 06:31:53;;;;;;;24.00;11.95;;;;;;;1.86;71.79;98040.53;1727661;81;21289;-80
2020/12/22 06:34:26;;;;;;;26.75;15.28;;;;;;;1.80;71.72;98033.80;1730733;82;21294;-79
2020/12/22 06:36:59;;;;;;;31.05;15.30;;;;;;;1.79;71.75;98030.79;1664085;85;21182;-81
2020/12/22 06:39:49;;;;;;;27.05;15.65;;;;;;;1.79;71.89;98035.12;1725364;83;21139;-81
2020/12/22 06:42:42;;;;;;;17.42;10.38;;;;;;;1.80;71.83;98041.59;1675656;85;21183;-81
2020/12/22 06:45:28;;;;;;;26.93;13.20;;;;;;;1.87;72.02;98038.34;1741313;82;21144;-81
2020/12/22 06:47:57;;;;;;;33.20;17.52;;;;;;;1.91;71.83;98032.16;1732966;81;21137;-81
2020/12/22 06:50:46;;;;;;;23.30;11.75;;;;;;;1.91;71.78;98035.19;1740801;82;21332;-81
2020/12/22 06:53:41;;;;;;;31.27;14.98;;;;;;;1.95;71.70;98038.11;1744471;81;21296;-81
2020/12/22 06:56:06;;;;;;;31.33;16.57;;;;;;;1.83;72.14;98029.78;1744450;82;21162;-81
2020/12/22 06:58:44;;;;;;;30.92;18.27;;;;;;;1.76;71.91;98033.47;1744687;82;21175;-80
2020/12/22 07:01:30;;;;;;;30.52;18.00;;;;;;;1.76;72.24;98030.03;1753290;82;21115;-80
2020/12/22 07:04:23;;;;;;;27.07;13.75;;;;;;;1.82;72.33;98031.97;1735341;82;21302;-81
2020/12/22 07:07:02;;;;;;;24.02;12.43;;;;;;;1.95;72.24;98038.11;1739763;82;21139;-80
2020/12/22 07:09:35;;;;;;;29.60;16.60;;;;;;;1.97;72.28;98035.86;1711913;82;21151;-80
2020/12/22 07:12:12;;;;;;;34.95;19.07;;;;;;;1.97;71.97;98026.77;1725859;82;21109;-80
2020/12/22 07:14:47;;;;;;;32.70;16.97;;;;;;;2.00;71.87;98032.31;1728742;82;21285;-80
2020/12/22 07:17:22;;;;;;;42.03;19.67;;;;;;;2.06;71.62;98034.74;1746189;82;21231;-79
2020/12/22 07:19:57;;;;;;;32.60;18.65;;;;;;;2.10;71.63;98032.44;1755546;82;21144;-80
2020/12/22 07:22:26;;;;;;;36.38;19.42;;;;;;;2.10;71.50;98033.73;1741047;82;21132;-79
2020/12/22 07:24:54;;;;;;;30.30;17.27;;;;;;;2.15;71.49;98036.19;1697871;83;21553;-79
2020/12/22 07:27:23;;;;;;;38.88;19.70;;;;;;;2.21;71.27;98036.02;1698397;83;21203;-78
2020/12/22 07:29:50;;;;;;;36.58;18.15;;;;;;;2.16;71.33;98030.09;1698221;83;21180;-78
2020/12/22 07:32:19;;;;;;;26.45;14.50;;;;;;;2.21;71.26;98024.75;1724114;83;21144;-80
2020/12/22 07:35:04;;;;;;;30.70;16.67;;;;;;;2.30;70.95;98021.42;1822771;77;24475;-79
2020/12/22 07:37:35;;;;;;;31.48;17.55;;;;;;;2.24;71.09;98016.86;1796135;78;21166;-79
2020/12/22 07:40:10;;;;;;;28.45;15.15;;;;;;;2.29;71.13;98022.31;1810733;78;21156;-79
2020/12/22 07:42:37;;;;;;;30.70;13.43;;;;;;;2.34;71.09;98023.00;1823614;78;21132;-79
2020/12/22 07:45:07;;;;;;;31.30;17.92;;;;;;;2.38;71.02;98026.35;1818113;78;21124;-80
2020/12/22 07:47:35;;;;;;;27.17;14.13;;;;;;;2.38;70.83;98019.85;1813197;78;21234;-82
2020/12/22 07:50:27;;;;;;;27.35;16.27;;;;;;;2.36;70.39;98015.17;1829955;78;21166;-81
2020/12/22 07:53:09;;;;;;;31.48;15.68;;;;;;;2.28;70.98;98018.44;1812558;79;24315;-80
2020/12/22 07:55:41;;;;;;;28.92;15.55;;;;;;;2.19;71.18;98021.73;1786587;78;21147;-80
2020/12/22 07:58:09;;;;;;;23.40;12.30;;;;;;;2.15;71.25;98011.48;1810260;78;21109;-80
2020/12/22 08:00:36;;;;;;;28.83;15.03;;;;;;;2.16;71.37;98011.45;1808688;78;21127;-80
2020/12/22 08:03:16;;;;;;;25.20;12.75;;;;;;;2.19;71.39;98007.89;1814775;78;21289;-80
2020/12/22 08:06:02;;;;;;;22.45;10.95;;;;;;;2.26;71.53;98008.56;1830160;78;21156;-81
2020/12/22 08:08:30;;;;;;;37.33;18.15;;;;;;;2.30;71.14;98006.23;1788644;80;21154;-80
2020/12/22 08:10:57;;;;;;;32.55;16.12;;;;;;;2.30;71.12;98008.84;1799604;78;21164;-83
2020/12/22 08:13:30;;;;;;;37.28;14.58;;;;;;;2.31;70.89;98015.75;1810166;78;21111;-80
2020/12/22 08:15:58;;;;;;;35.43;19.95;;;;;;;2.32;70.84;98013.55;1816628;78;21288;-81
2020/12/22 08:18:31;;;;;;;28.52;15.53;;;;;;;2.27;71.17;98012.40;1799707;78;21112;-82
2020/12/22 08:21:00;;;;;;;22.67;13.03;;;;;;;2.29;71.11;98017.11;1794129;79;21553;-81
2020/12/22 08:23:29;;;;;;;33.15;18.52;;;;;;;2.31;71.13;98019.66;1798458;78;21155;-80
2020/12/22 08:25:56;;;;;;;33.25;16.25;;;;;;;2.33;71.28;98024.37;1809898;78;21093;-80
2020/12/22 08:28:26;;;;;;;30.65;16.15;;;;;;;2.41;71.31;98021.06;1796962;78;21111;-79
2020/12/22 08:30:55;;;;;;;27.82;15.90;;;;;;;2.46;71.05;98029.55;1810758;78;21225;-82
2020/12/22 08:33:23;;;;;;;39.40;19.85;;;;;;;2.52;70.94;98019.86;1789966;78;21128;-80
2020/12/22 08:35:51;;;;;;;39.95;20.88;;;;;;;2.58;71.01;98017.91;1809262;78;21131;-82
2020/12/22 08:38:26;;;;;;;33.28;18.62;;;;;;;2.69;70.78;98011.50;1798937;78;21622;-80
2020/12/22 08:40:56;;;;;;;35.35;19.85;;;;;;;2.74;70.51;98011.72;1823427;78;21119;-83
2020/12/22 08:43:55;;;;;;;25.95;12.05;;;;;;;2.82;70.23;98017.98;1790222;80;26303;-82
2020/12/22 08:46:23;;;;;;;28.05;14.75;;;;;;;2.78;70.22;98021.61;1764026;81;21262;-83
2020/12/22 08:48:50;;;;;;;27.80;13.58;;;;;;;2.81;70.19;98022.34;1759493;81;22245;-81
2020/12/22 08:51:26;;;;;;;33.13;19.42;;;;;;;2.86;69.79;98020.02;1750980;81;21131;-79
2020/12/22 08:53:53;;;;;;;32.08;18.35;;;;;;;2.89;69.91;98014.25;1761409;81;21143;-82
2020/12/22 08:56:24;;;;;;;35.85;20.80;;;;;;;2.89;69.88;98014.25;1762233;81;21144;-81
2020/12/22 08:59:03;;;;;;;33.28;19.20;;;;;;;2.93;69.72;98022.38;1748681;82;21334;-83
2020/12/22 09:01:41;;;;;;;33.15;19.37;;;;;;;2.91;69.52;98017.66;1748801;82;21728;-80
2020/12/22 09:04:11;;;;;;;34.27;18.17;;;;;;;2.90;69.37;98012.52;1749272;82;21279;-82
2020/12/22 09:06:47;;;;;;;25.12;13.50;;;;;;;2.97;69.28;97999.67;1753161;81;21274;-83
2020/12/22 09:09:24;;;;;;;39.08;18.90;;;;;;;2.97;68.89;98003.11;1738696;81;21292;-83
2020/12/22 09:12:09;;;;;;;33.02;18.62;;;;;;;2.92;69.16;97994.63;1730986;83;21304;-82
2020/12/22 09:14:46;;;;;;;19.10;9.55;;;;;;;2.97;69.59;97989.25;1730821;83;21817;-83
2020/12/22 09:17:28;;;;;;;30.88;17.40;;;;;;;3.05;69.70;97989.83;1730448;83;21146;-82
2020/12/22 09:19:56;;;;;;;34.20;16.80;;;;;;;3.09;69.48;97994.03;1730457;83;21185;-82
2020/12/22 09:22:30;;;;;;;31.82;17.37;;;;;;;3.14;69.24;97978.23;1738142;81;21119;-83
2020/12/22 09:25:05;;;;;;;33.30;15.30;;;;;;;3.11;69.05;97974.44;1744674;80;21258;-83
2020/12/22 09:30:22;;;;;;;31.87;18.27;;;;;;;3.12;68.99;97976.97;1831396;77;23423;-81
2020/12/22 09:32:50;;;;;;;39.70;19.17;;;;;;;3.15;69.18;97972.56;1777570;80;21132;-82
2020/12/22 09:35:18;;;;;;;25.25;13.68;;;;;;;3.21;68.69;97967.12;1710401;84;21262;-84
2020/12/22 09:37:46;;;;;;;34.13;17.15;;;;;;;3.23;68.52;97957.50;1717318;81;21280;-83
2020/12/22 09:40:15;;;;;;;36.40;19.48;;;;;;;3.22;68.50;97950.15;1722941;82;21302;-80
2020/12/22 09:42:42;;;;;;;36.60;18.92;;;;;;;3.25;68.79;97942.66;1709891;84;21283;-81
2020/12/22 09:45:10;;;;;;;21.02;12.58;;;;;;;3.33;68.79;97937.17;1717442;81;21457;-84
2020/12/22 09:47:37;;;;;;;31.60;19.92;;;;;;;3.47;68.62;97932.27;1762057;81;21281;-81
2020/12/22 09:50:23;;;;;;;37.45;23.18;;;;;;;3.59;67.58;97931.81;1678391;84;21363;-82
2020/12/22 09:52:50;;;;;;;23.47;13.80;;;;;;;3.65;66.56;97918.13;1701469;84;21311;-82
2020/12/22 09:55:17;;;;;;;38.00;21.42;;;;;;;3.65;67.22;97919.00;1722218;82;21611;-82
2020/12/22 09:57:45;;;;;;;33.33;19.17;;;;;;;3.55;67.06;97911.14;1730926;82;21355;-80
2020/12/22 10:00:13;;;;;;;36.42;22.27;;;;;;;3.53;67.31;97922.91;1731000;82;21280;-83
2020/12/22 10:02:40;;;;;;;29.85;19.55;;;;;;;3.48;67.02;97910.52;1731685;83;21379;-85
2020/12/22 10:05:07;;;;;;;30.32;17.82;;;;;;;3.54;67.38;97912.04;1731589;83;21165;-82
2020/12/22 10:07:36;;;;;;;28.27;17.10;;;;;;;3.57;67.33;97906.72;1771397;81;21232;-85
2020/12/22 10:10:26;;;;;;;34.70;18.15;;;;;;;3.55;67.28;97899.41;1725151;81;21239;-83
2020/12/22 10:13:44;;;;;;;33.48;17.77;;;;;;;3.52;67.30;97896.91;1669308;82;21106;-86
2020/12/22 10:16:33;;;;;;;28.35;15.63;;;;;;;3.52;67.77;97896.91;1717647;81;21132;-80
2020/12/22 10:19:13;;;;;;;25.55;13.95;;;;;;;3.59;67.52;97887.92;1723150;82;21267;-80
2020/12/22 10:21:52;;;;;;;28.42;16.97;;;;;;;3.59;67.29;97891.41;1728957;81;21294;-81
2020/12/22 10:24:22;;;;;;;24.60;12.90;;;;;;;3.60;67.18;97889.63;1693227;83;21187;-81
2020/12/22 10:26:50;;;;;;;37.80;21.20;;;;;;;3.65;67.24;97883.80;1700219;83;21192;-82
2020/12/22 10:29:18;;;;;;;30.82;17.15;;;;;;;3.72;67.21;97889.16;1665497;86;21261;-82
2020/12/22 10:31:46;;;;;;;24.37;13.10;;;;;;;3.91;67.36;97883.20;1653298;86;21106;-82
2020/12/22 10:34:41;;;;;;;25.00;16.42;;;;;;;4.08;66.28;97873.38;1818313;79;26508;-81
2020/12/22 10:37:09;;;;;;;30.97;20.05;;;;;;;4.06;66.38;97872.59;1795394;78;21261;-79
2020/12/22 10:39:36;;;;;;;25.60;16.97;;;;;;;3.99;65.91;97868.08;1813451;78;21150;-81
2020/12/22 10:42:03;;;;;;;29.00;16.70;;;;;;;3.99;66.18;97865.47;1814215;78;21143;-78
2020/12/22 10:44:32;;;;;;;32.10;17.17;;;;;;;3.97;65.68;97860.77;1826175;78;21245;-83
2020/12/22 10:47:00;;;;;;;26.82;16.48;;;;;;;3.95;65.81;97859.97;1782978;78;21706;-80
2020/12/22 10:49:27;;;;;;;25.45;13.98;;;;;;;3.91;66.25;97850.59;1824657;78;21116;-81
2020/12/22 10:51:54;;;;;;;25.35;13.60;;;;;;;3.94;66.10;97844.39;1821127;78;21243;-86
2020/12/22 10:54:23;;;;;;;27.35;14.70;;;;;;;3.92;66.04;97847.08;1827801;78;21273;-83
2020/12/22 10:56:53;;;;;;;26.10;13.88;;;;;;;3.84;66.16;97842.63;1823962;78;21217;-84
2020/12/22 10:59:21;;;;;;;34.13;19.62;;;;;;;3.82;66.28;97843.14;1805320;78;21114;-82
2020/12/22 11:02:29;;;;;;;42.27;22.45;;;;;;;3.85;66.53;97850.85;1842276;77;25346;-83
2020/12/22 11:09:17;;;;;;;19.23;9.58;;;;;;;3.78;66.71;97840.25;1734734;80;21092;-85
2020/12/22 11:12:10;;;;;;;24.75;16.10;;;;;;;3.74;66.77;97821.28;1686078;84;21222;-83
2020/12/22 11:14:38;;;;;;;21.95;13.65;;;;;;;3.75;66.85;97815.16;1688886;83;21289;-83
2020/12/22 11:17:05;;;;;;;23.22;13.20;;;;;;;3.78;66.84;97812.87;1680871;85;21189;-83
2020/12/22 11:19:32;;;;;;;25.30;13.35;;;;;;;3.73;66.88;97816.53;1684409;85;21167;-82
2020/12/22 11:22:00;;;;;;;30.10;16.73;;;;;;;3.74;67.02;97817.38;1705225;84;21126;-81
2020/12/22 11:24:27;;;;;;;23.40;14.18;;;;;;;3.67;67.18;97813.33;1690430;82;21198;-83
2020/12/22 11:26:55;;;;;;;26.10;13.32;;;;;;;3.69;67.26;97812.81;1697007;81;21647;-81
2020/12/22 11:29:25;;;;;;;14.98;8.85;;;;;;;3.63;67.35;97812.61;1725365;80;21141;-82
2020/12/22 11:31:53;;;;;;;32.03;19.20;;;;;;;3.66;67.38;97819.01;1796012;80;21598;-81
2020/12/22 11:34:56;;;;;;;20.50;11.65;;;;;;;3.66;67.59;97816.84;1774022;80;21159;-81
2020/12/22 11:37:36;;;;;;;23.50;12.33;;;;;;;3.65;67.40;97815.14;1766861;80;21124;-83
2020/12/22 11:40:53;;;;;;;17.25;8.73;;;;;;;3.65;67.54;97814.70;1796697;79;21141;-82
2020/12/22 11:43:32;;;;;;;31.37;17.12;;;;;;;3.77;67.64;97816.39;1793696;77;21226;-84
2020/12/22 11:46:46;;;;;;;36.05;18.25;;;;;;;3.78;67.46;97811.57;1793608;80;21115;-82
2020/12/22 11:49:43;;;;;;;16.93;8.80;;;;;;;3.87;67.51;97803.36;1804421;78;21234;-85
2020/12/22 11:52:20;;;;;;;27.37;15.83;;;;;;;3.87;67.13;97812.49;1789897;78;21146;-81